Canton, GA

8:55 PM EDT on April 28, 2017 (GMT -0400)
Canton

Weather History for KCNI - November, 2011

Change the Weather History Date:

Wednesday, November 2, 2011

  Actual Average (KMGE) Record (KMGE)
Temperature  
Mean Temperature 52 °F -  
Max Temperature 66 °F 65 °F 80 °F (2000)
Min Temperature 37 °F 47 °F 33 °F (2014)
Degree Days  
Heating Degree Days 14    
Growing Degree Days 2 (Base 50)    
Moisture  
Dew Point 39 °F    
Average Humidity 63    
Maximum Humidity 93    
Minimum Humidity 37    
Precipitation  
Precipitation 0.00 in - - ()
Sea Level Pressure  
Sea Level Pressure 30.32 in    
Wind  
Wind Speed 3 mph ()    
Max Wind Speed 12 mph    
Max Gust Speed 17 mph    
Visibility 10.0 miles    
Events      
Averages and records for this station are not official NWS values.
T = Trace of Precipitation, MM = Missing Value Source: Averaged Metar Reports

Daily Weather History Graph

Daily Weather History Graph

Search for Another Location

Airport or City:

Trip Planner

Search our weather history database for the weather conditions in past years. The results will help you decide how hot, cold, wet, or windy it might be!

Date:

Astronomy

Nov. 02, 2011 Rise Set
Actual Time 7:58 AM EDT 6:43 PM EDT
Civil Twilight 7:32 AM EDT 7:09 PM EDT
Nautical Twilight 7:02 AM EDT 7:39 PM EDT
Astronomical Twilight 6:33 AM EDT 8:08 PM EDT
Moon 2:17 PM EDT (11/2) 12:27 AM EDT (11/2)
Length of Visible Light 11h 37m
Length of Day
10h 45m
Waxing Crescent, 50% of the Moon is Illuminated
Nov 2
Waxing Crescent
Nov 2
First Quarter
Nov 10
Full
Nov 18
Last Quarter
Nov 25
New

Hourly Weather History & Observations

Time (EDT) Temp. Windchill Dew Point Humidity Pressure Visibility Wind Dir Wind Speed Gust Speed Precip Events Conditions
12:15 AM 46.4 °F 45.2 °F 37.4 °F 71% 30.31 in 10.0 mi ENE 3.5 mph - N/A   Clear
12:35 AM 42.8 °F - 37.4 °F 81% 30.32 in 10.0 mi Calm Calm - N/A   Clear
12:55 AM 44.6 °F 43.1 °F 37.4 °F 76% 30.32 in 10.0 mi ENE 3.5 mph - N/A   Clear
1:15 AM 44.6 °F 43.1 °F 37.4 °F 76% 30.32 in 10.0 mi ENE 3.5 mph - N/A   Clear
1:35 AM 44.6 °F - 37.4 °F 76% 30.32 in 10.0 mi Calm Calm - N/A   Clear
1:55 AM 44.6 °F - 37.4 °F 76% 30.32 in 10.0 mi Calm Calm - N/A   Clear
2:15 AM 42.8 °F - 37.4 °F 81% 30.32 in 10.0 mi Calm Calm - N/A   Clear
2:35 AM 42.8 °F - 37.4 °F 81% 30.33 in 10.0 mi Calm Calm - N/A   Clear
2:55 AM 42.8 °F - 37.4 °F 81% 30.32 in 10.0 mi Calm Calm - N/A   Clear
3:15 AM 42.8 °F - 37.4 °F 81% 30.32 in 10.0 mi Calm Calm - N/A   Clear
3:35 AM 39.2 °F - 35.6 °F 87% 30.32 in 10.0 mi Calm Calm - N/A   Clear
3:55 AM 41.0 °F - 37.4 °F 87% 30.32 in 10.0 mi Calm Calm - N/A   Clear
4:15 AM 41.0 °F - 37.4 °F 87% 30.32 in 10.0 mi Calm Calm - N/A   Clear
4:35 AM 37.4 °F - 35.6 °F 93% 30.33 in 10.0 mi Calm Calm - N/A   Clear
4:55 AM 41.0 °F - 37.4 °F 87% 30.33 in 10.0 mi Calm Calm - N/A   Clear
5:55 AM 41.0 °F 39.0 °F 37.4 °F 87% 30.33 in 10.0 mi ENE 3.5 mph - N/A   Clear
6:55 AM 41.0 °F 39.0 °F 37.4 °F 87% 30.36 in 10.0 mi ENE 3.5 mph - N/A   Clear
7:15 AM 39.2 °F - 35.6 °F 87% 30.36 in 10.0 mi Calm Calm - N/A   Clear
7:35 AM 39.2 °F - 37.4 °F 93% 30.36 in 10.0 mi Calm Calm - N/A   Clear
7:55 AM 39.2 °F - 37.4 °F 93% 30.37 in 10.0 mi Calm Calm - N/A   Clear
8:35 AM 41.0 °F 38.0 °F 37.4 °F 87% 30.38 in 10.0 mi East 4.6 mph - N/A   Clear
8:55 AM 42.8 °F 41.1 °F 37.4 °F 81% 30.39 in 10.0 mi East 3.5 mph - N/A   Clear
9:15 AM 44.6 °F - 37.4 °F 76% 30.40 in 10.0 mi Calm Calm - N/A   Clear
9:35 AM 46.4 °F 44.3 °F 37.4 °F 71% 30.40 in 10.0 mi East 4.6 mph - N/A   Clear
9:55 AM 48.2 °F - 39.2 °F 71% 30.40 in 10.0 mi East 4.6 mph - N/A   Clear
10:15 AM 50.0 °F - 41.0 °F 71% 30.40 in 10.0 mi East 6.9 mph - N/A   Clear
10:35 AM 51.8 °F - 41.0 °F 67% 30.40 in 10.0 mi East 6.9 mph - N/A   Clear
10:55 AM 51.8 °F - 41.0 °F 67% 30.39 in 10.0 mi ESE 8.1 mph - N/A   Clear
11:15 AM 53.6 °F - 41.0 °F 62% 30.39 in 10.0 mi SE 6.9 mph - N/A   Clear
11:35 AM 55.4 °F - 41.0 °F 58% 30.39 in 10.0 mi East 6.9 mph - N/A   Clear
11:55 AM 57.2 °F - 41.0 °F 55% 30.39 in 10.0 mi SSE 4.6 mph - N/A   Clear
12:15 PM 59.0 °F - 41.0 °F 51% 30.38 in 10.0 mi ESE 8.1 mph - N/A   Clear
12:35 PM 59.0 °F - 37.4 °F 45% 30.36 in 10.0 mi ESE 11.5 mph 17.3 mph N/A   Clear
12:55 PM 60.8 °F - 37.4 °F 42% 30.36 in 10.0 mi ESE 10.4 mph 16.1 mph N/A   Clear
1:15 PM 60.8 °F - 35.6 °F 39% 30.35 in 10.0 mi SE 11.5 mph 17.3 mph N/A   Clear
1:35 PM 62.6 °F - 35.6 °F 37% 30.34 in 10.0 mi SSE 9.2 mph - N/A   Clear
1:55 PM 62.6 °F - 35.6 °F 37% 30.33 in 10.0 mi ESE 8.1 mph - N/A   Clear
2:15 PM 62.6 °F - 37.4 °F 39% 30.32 in 10.0 mi SSE 8.1 mph - N/A   Clear
2:35 PM 64.4 °F - 37.4 °F 37% 30.31 in 10.0 mi ESE 6.9 mph - N/A   Clear
2:55 PM 64.4 °F - 37.4 °F 37% 30.31 in 10.0 mi ENE 8.1 mph - N/A   Clear
3:15 PM 64.4 °F - 37.4 °F 37% 30.30 in 10.0 mi East 9.2 mph - N/A   Clear
3:35 PM 64.4 °F - 39.2 °F 40% 30.29 in 10.0 mi East 5.8 mph - N/A   Clear
3:55 PM 66.2 °F - 39.2 °F 37% 30.29 in 10.0 mi East 5.8 mph - N/A   Clear
4:15 PM 64.4 °F - 39.2 °F 40% 30.28 in 10.0 mi ENE 4.6 mph - N/A   Clear
4:35 PM 64.4 °F - 39.2 °F 40% 30.28 in 10.0 mi ESE 6.9 mph - N/A   Clear
4:55 PM 64.4 °F - 39.2 °F 40% 30.27 in 10.0 mi East 5.8 mph - N/A   Clear
5:15 PM 64.4 °F - 39.2 °F 40% 30.27 in 10.0 mi East 8.1 mph - N/A   Clear
5:35 PM 64.4 °F - 39.2 °F 40% 30.26 in 10.0 mi East 5.8 mph - N/A   Clear
5:55 PM 62.6 °F - 39.2 °F 42% 30.26 in 10.0 mi ESE 6.9 mph - N/A   Clear
6:15 PM 62.6 °F - 39.2 °F 42% 30.26 in 10.0 mi East 4.6 mph - N/A   Clear
6:35 PM 60.8 °F - 39.2 °F 45% 30.26 in 10.0 mi East 4.6 mph - N/A   Clear
6:55 PM 59.0 °F - 39.2 °F 48% 30.26 in 10.0 mi East 4.6 mph - N/A   Clear
7:15 PM 59.0 °F - 39.2 °F 48% 30.26 in 10.0 mi East 3.5 mph - N/A   Clear
7:35 PM 57.2 °F - 39.2 °F 51% 30.26 in 10.0 mi ESE 4.6 mph - N/A   Clear
7:55 PM 55.4 °F - 39.2 °F 54% 30.26 in 10.0 mi East 4.6 mph - N/A   Clear
8:15 PM 55.4 °F - 39.2 °F 54% 30.27 in 10.0 mi East 4.6 mph - N/A   Clear
8:35 PM 53.6 °F - 39.2 °F 58% 30.27 in 10.0 mi Calm Calm - N/A   Clear
8:55 PM 53.6 °F - 39.2 °F 58% 30.28 in 10.0 mi Calm Calm - N/A   Clear
9:15 PM 53.6 °F - 39.2 °F 58% 30.27 in 10.0 mi Calm Calm - N/A   Clear
9:35 PM 51.8 °F - 41.0 °F 67% 30.27 in 10.0 mi Calm Calm - N/A   Clear
9:55 PM 51.8 °F - 41.0 °F 67% 30.27 in 10.0 mi East 3.5 mph - N/A   Clear
10:15 PM 50.0 °F - 41.0 °F 71% 30.27 in 10.0 mi East 3.5 mph - N/A   Clear
10:35 PM 50.0 °F - 41.0 °F 71% 30.27 in 10.0 mi Calm Calm - N/A   Clear
11:15 PM 46.4 °F - 41.0 °F 81% 30.27 in 10.0 mi Calm Calm - N/A   Clear
11:35 PM 46.4 °F 45.2 °F 41.0 °F 81% 30.28 in 10.0 mi ENE 3.5 mph - N/A   Clear
11:55 PM 46.4 °F 44.3 °F 41.0 °F 81% 30.27 in 10.0 mi ENE 4.6 mph - N/A   Clear